createdAt,value
2022-10-16T00:01:38.538Z,0.80
2022-10-16T00:04:06.715Z,0.93
2022-10-16T00:06:34.695Z,0.70
2022-10-16T00:09:02.529Z,0.90
2022-10-16T00:11:34.227Z,0.90
2022-10-16T00:14:04.059Z,0.67
2022-10-16T00:16:33.663Z,1.10
2022-10-16T00:19:01.404Z,0.83
2022-10-16T00:21:31.144Z,0.80
2022-10-16T00:24:01.205Z,0.87
2022-10-16T00:26:30.991Z,0.93
2022-10-16T00:28:58.780Z,0.70
2022-10-16T00:31:26.973Z,0.80
2022-10-16T00:33:56.148Z,0.93
2022-10-16T00:36:26.127Z,0.80
2022-10-16T00:38:55.670Z,0.80
2022-10-16T00:41:26.003Z,0.80
2022-10-16T00:43:55.766Z,0.90
2022-10-16T00:46:26.133Z,0.80
2022-10-16T00:48:59.677Z,1.10
2022-10-16T00:51:32.205Z,0.80
2022-10-16T00:54:00.946Z,1.00
2022-10-16T00:56:28.740Z,0.90
2022-10-16T00:58:56.497Z,0.90
2022-10-16T01:01:24.214Z,1.10
2022-10-16T01:03:52.022Z,0.70
2022-10-16T01:06:38.431Z,1.00
2022-10-16T01:09:16.218Z,1.30
2022-10-16T01:11:50.635Z,1.20
2022-10-16T01:14:24.855Z,1.10
2022-10-16T01:17:00.656Z,1.43
2022-10-16T01:19:51.781Z,0.97
2022-10-16T01:22:23.142Z,1.10
2022-10-16T01:24:51.992Z,1.13
2022-10-16T01:27:25.024Z,1.40
2022-10-16T01:29:56.782Z,1.30
2022-10-16T01:32:32.701Z,1.67
2022-10-16T01:35:04.071Z,1.50
2022-10-16T01:37:37.418Z,1.50
2022-10-16T01:40:11.027Z,1.60
2022-10-16T01:42:43.933Z,2.07
2022-10-16T01:45:15.405Z,1.93
2022-10-16T01:47:44.753Z,2.03
2022-10-16T01:50:14.317Z,1.80
2022-10-16T01:52:45.924Z,1.93
2022-10-16T01:55:16.458Z,2.03
2022-10-16T01:57:49.953Z,1.60
2022-10-16T02:00:20.925Z,1.87
2022-10-16T02:02:54.215Z,2.37
2022-10-16T02:05:26.529Z,2.13
2022-10-16T02:07:54.588Z,2.20
2022-10-16T02:10:22.974Z,1.80
2022-10-16T02:12:58.511Z,2.00
2022-10-16T02:15:26.218Z,2.30
2022-10-16T02:17:53.923Z,2.57
2022-10-16T02:20:27.177Z,2.00
2022-10-16T02:22:57.566Z,2.07
2022-10-16T02:25:28.881Z,2.33
2022-10-16T02:28:03.795Z,2.37
2022-10-16T02:30:38.450Z,2.33
2022-10-16T02:33:09.258Z,2.20
2022-10-16T02:35:37.768Z,1.90
2022-10-16T02:38:07.452Z,2.30
2022-10-16T02:40:35.681Z,2.00
2022-10-16T02:43:06.546Z,2.10
2022-10-16T02:45:35.197Z,2.10
2022-10-16T02:48:02.965Z,2.00
2022-10-16T02:50:30.795Z,1.80
2022-10-16T02:52:58.474Z,1.90
2022-10-16T02:55:26.244Z,1.80
2022-10-16T02:57:54.110Z,2.00
2022-10-16T03:00:23.179Z,1.90
2022-10-16T03:02:50.955Z,2.10
2022-10-16T03:05:19.152Z,2.43
2022-10-16T03:07:46.926Z,1.97
2022-10-16T03:10:14.829Z,2.50
2022-10-16T03:12:42.565Z,2.27
2022-10-16T03:15:11.073Z,2.37
2022-10-16T03:17:40.151Z,2.40
2022-10-16T03:20:08.887Z,2.03
2022-10-16T03:22:36.614Z,2.37
2022-10-16T03:25:04.604Z,2.30
2022-10-16T03:27:32.430Z,2.30
2022-10-16T03:30:00.204Z,2.60
2022-10-16T03:32:29.523Z,2.40
2022-10-16T03:34:58.694Z,2.00
2022-10-16T03:37:27.178Z,2.30
2022-10-16T03:39:55.818Z,2.30
2022-10-16T03:42:23.709Z,2.63
2022-10-16T03:44:51.413Z,2.33
2022-10-16T03:47:22.537Z,2.27
2022-10-16T03:49:50.306Z,2.80
2022-10-16T03:54:52.083Z,2.50
2022-10-16T03:57:21.570Z,2.20
2022-10-16T03:59:49.272Z,2.57
2022-10-16T04:02:17.065Z,2.90
2022-10-16T04:04:44.786Z,2.70
2022-10-16T04:07:12.538Z,2.73
2022-10-16T04:09:41.667Z,3.00
2022-10-16T04:12:09.504Z,3.10
2022-10-16T04:14:37.302Z,2.77
2022-10-16T04:17:05.087Z,3.40
2022-10-16T04:19:32.772Z,3.40
2022-10-16T04:22:00.443Z,2.83
2022-10-16T04:24:28.215Z,2.77
2022-10-16T04:26:57.654Z,3.10
2022-10-16T04:29:25.482Z,2.97
2022-10-16T04:31:53.298Z,2.90
2022-10-16T04:34:21.050Z,2.80
2022-10-16T04:36:50.181Z,2.57
2022-10-16T04:39:18.339Z,2.20
2022-10-16T04:41:46.038Z,2.43
2022-10-16T04:44:15.298Z,2.20
2022-10-16T04:46:42.987Z,2.13
2022-10-16T04:49:10.758Z,2.53
2022-10-16T04:51:38.486Z,2.50
2022-10-16T04:54:06.232Z,2.20
2022-10-16T04:56:33.926Z,2.23
2022-10-16T04:59:01.671Z,2.80
2022-10-16T05:01:30.817Z,2.70
2022-10-16T05:03:58.581Z,2.60
2022-10-16T05:06:26.511Z,2.47
2022-10-16T05:08:54.190Z,3.00
2022-10-16T05:11:21.919Z,2.60
2022-10-16T05:13:50.994Z,2.93
2022-10-16T05:16:21.349Z,2.60
2022-10-16T05:18:53.172Z,3.00
2022-10-16T05:21:23.765Z,2.97
2022-10-16T05:23:51.549Z,2.97
2022-10-16T05:26:19.213Z,2.80
2022-10-16T05:28:46.974Z,2.77
2022-10-16T05:31:14.718Z,2.70
2022-10-16T05:33:42.562Z,2.77
2022-10-16T05:36:12.456Z,3.33
2022-10-16T05:38:41.014Z,2.80
2022-10-16T05:41:08.948Z,3.20
2022-10-16T05:43:36.661Z,2.63
2022-10-16T05:46:06.186Z,3.33
2022-10-16T05:48:34.319Z,3.40
2022-10-16T05:51:03.721Z,2.80
2022-10-16T05:53:34.454Z,2.87
2022-10-16T05:56:02.253Z,2.80
2022-10-16T05:58:31.927Z,2.87
2022-10-16T06:01:01.706Z,3.40
2022-10-16T06:03:29.883Z,2.90
2022-10-16T06:05:57.698Z,3.00
2022-10-16T06:08:25.905Z,2.73
2022-10-16T06:11:03.958Z,2.80
2022-10-16T06:13:32.566Z,2.57
2022-10-16T06:16:01.436Z,2.40
2022-10-16T06:18:30.406Z,2.50
2022-10-16T06:20:59.006Z,2.90
2022-10-16T06:23:27.271Z,4.33
2022-10-16T06:25:55.021Z,4.33
2022-10-16T06:28:24.243Z,4.80
2022-10-16T06:31:04.196Z,3.80
2022-10-16T06:33:35.494Z,4.20
2022-10-16T06:36:04.139Z,4.13
2022-10-16T06:38:31.949Z,4.43
2022-10-16T06:41:00.289Z,3.90
2022-10-16T06:43:33.017Z,2.57
2022-10-16T06:46:02.178Z,2.93
2022-10-16T06:48:30.968Z,2.40
2022-10-16T06:51:00.260Z,2.97
2022-10-16T06:53:31.347Z,2.60
2022-10-16T06:56:09.470Z,3.00
2022-10-16T06:58:38.839Z,2.87
2022-10-16T07:01:07.377Z,3.00
2022-10-16T07:03:35.270Z,2.93
2022-10-16T07:06:04.723Z,2.63
2022-10-16T07:08:33.492Z,2.50
2022-10-16T07:11:02.046Z,2.87
2022-10-16T07:13:29.940Z,2.77
2022-10-16T07:15:59.058Z,2.63
2022-10-16T07:21:06.594Z,2.90
2022-10-16T07:23:34.517Z,3.00
2022-10-16T07:26:02.429Z,2.70
2022-10-16T07:28:30.715Z,2.73
2022-10-16T07:31:03.193Z,2.70
2022-10-16T07:33:31.107Z,2.60
2022-10-16T07:35:58.943Z,2.53
2022-10-16T07:38:26.662Z,2.57
2022-10-16T07:40:58.901Z,2.73
2022-10-16T07:43:27.077Z,2.60
2022-10-16T07:45:56.048Z,2.23
2022-10-16T07:48:26.347Z,2.23
2022-10-16T07:50:54.057Z,2.17
2022-10-16T07:53:24.842Z,2.50
2022-10-16T07:55:54.106Z,2.00
2022-10-16T07:58:21.851Z,2.07
2022-10-16T08:00:49.623Z,2.30
2022-10-16T08:03:17.393Z,2.37
2022-10-16T08:05:46.457Z,2.20
2022-10-16T08:08:15.626Z,2.23
2022-10-16T08:10:43.450Z,1.77
2022-10-16T08:13:11.277Z,1.60
2022-10-16T08:15:39.043Z,1.47
2022-10-16T08:18:07.364Z,1.30
2022-10-16T08:20:35.627Z,1.20
2022-10-16T08:23:05.153Z,1.07
2022-10-16T08:25:33.191Z,1.30
2022-10-16T08:28:00.881Z,0.90
2022-10-16T08:30:28.620Z,1.10
2022-10-16T08:32:56.374Z,1.00
2022-10-16T08:35:24.145Z,0.90
2022-10-16T08:37:51.910Z,1.07
2022-10-16T08:43:18.284Z,1.03
2022-10-16T08:46:06.025Z,0.80
2022-10-16T08:48:39.829Z,0.90
2022-10-16T08:51:09.157Z,0.70
2022-10-16T08:53:46.714Z,0.80
2022-10-16T08:56:15.999Z,0.80
2022-10-16T09:01:17.058Z,0.90
2022-10-16T09:03:57.486Z,0.60
2022-10-16T09:06:45.384Z,0.90
2022-10-16T09:09:41.715Z,0.80
2022-10-16T09:12:16.532Z,1.00
2022-10-16T09:15:01.511Z,0.70
2022-10-16T09:17:42.937Z,0.60
2022-10-16T09:20:33.519Z,0.87
2022-10-16T09:23:15.466Z,0.70
2022-10-16T09:25:48.531Z,0.80
2022-10-16T09:28:18.306Z,1.00
2022-10-16T09:30:46.868Z,0.83
2022-10-16T09:33:15.667Z,1.00
2022-10-16T09:35:46.102Z,0.70
2022-10-16T09:38:24.436Z,0.70
2022-10-16T09:41:02.535Z,0.60
2022-10-16T09:43:37.486Z,0.90
2022-10-16T09:46:07.483Z,0.70
2022-10-16T09:48:39.908Z,0.90
2022-10-16T09:51:20.239Z,1.10
2022-10-16T09:53:49.419Z,0.90
2022-10-16T09:56:24.840Z,0.70
2022-10-16T09:58:55.197Z,0.73
2022-10-16T10:01:24.962Z,0.70
2022-10-16T10:03:54.213Z,0.70
2022-10-16T10:06:26.413Z,0.70
2022-10-16T10:08:58.950Z,1.00
2022-10-16T10:11:41.240Z,1.00
2022-10-16T10:14:18.866Z,0.70
2022-10-16T10:16:46.839Z,1.00
2022-10-16T10:19:19.095Z,0.70
2022-10-16T10:21:47.484Z,0.70
2022-10-16T10:24:16.529Z,0.83
2022-10-16T10:26:51.200Z,0.67
2022-10-16T10:29:32.434Z,0.70
2022-10-16T10:32:14.689Z,0.60
2022-10-16T10:34:56.623Z,0.77
2022-10-16T10:37:43.987Z,0.80
2022-10-16T10:40:23.956Z,0.93
2022-10-16T10:42:59.670Z,0.70
2022-10-16T10:45:38.693Z,0.90
2022-10-16T10:48:19.371Z,0.73
2022-10-16T10:50:54.583Z,0.73
2022-10-16T10:53:32.124Z,0.63
2022-10-16T10:56:09.535Z,0.63
2022-10-16T10:59:03.154Z,0.80
2022-10-16T11:01:41.119Z,0.60
2022-10-16T11:04:27.607Z,0.70
2022-10-16T11:06:59.825Z,0.60
2022-10-16T11:09:31.790Z,0.70
2022-10-16T11:12:05.611Z,0.90
2022-10-16T11:14:38.526Z,0.67
2022-10-16T11:17:12.050Z,1.07
2022-10-16T11:19:43.656Z,0.80
2022-10-16T11:22:17.568Z,0.80
2022-10-16T11:24:50.677Z,0.70
2022-10-16T11:27:22.292Z,1.00
2022-10-16T11:29:58.575Z,0.90
2022-10-16T11:32:37.874Z,0.80
2022-10-16T11:35:16.962Z,0.70
2022-10-16T11:37:48.386Z,0.70
2022-10-16T11:40:24.603Z,0.60
2022-10-16T11:42:56.968Z,0.60
2022-10-16T11:45:33.011Z,0.70
2022-10-16T11:48:06.758Z,0.80
2022-10-16T11:50:40.654Z,0.57
2022-10-16T11:53:16.087Z,0.67
2022-10-16T11:55:47.155Z,0.60
2022-10-16T11:58:24.857Z,0.60
2022-10-16T12:01:00.778Z,0.70
2022-10-16T12:03:33.776Z,0.87
2022-10-16T12:06:13.353Z,0.60
2022-10-16T12:08:42.437Z,0.60
2022-10-16T12:11:12.035Z,0.90
2022-10-16T12:13:41.935Z,0.50
2022-10-16T12:16:23.629Z,0.57
2022-10-16T12:19:11.817Z,0.70
2022-10-16T12:21:39.801Z,0.50
2022-10-16T12:24:08.414Z,0.70
2022-10-16T12:26:40.374Z,0.73
2022-10-16T12:29:16.836Z,0.50
2022-10-16T12:31:57.448Z,0.50
2022-10-16T12:34:31.154Z,0.60
2022-10-16T12:37:11.276Z,0.77
2022-10-16T12:39:39.245Z,0.60
2022-10-16T12:42:21.621Z,0.67
2022-10-16T12:44:49.336Z,0.60
2022-10-16T12:47:25.668Z,0.60
2022-10-16T12:49:56.508Z,0.70
2022-10-16T12:52:30.229Z,0.40
2022-10-16T12:55:00.154Z,0.60
2022-10-16T12:57:39.034Z,0.50
2022-10-16T13:00:20.258Z,0.70
2022-10-16T13:03:07.721Z,0.50
2022-10-16T13:05:53.260Z,0.83
2022-10-16T13:08:41.581Z,1.00
2022-10-16T13:11:19.744Z,0.50
2022-10-16T13:14:05.232Z,0.40
2022-10-16T13:16:43.314Z,0.70
2022-10-16T13:19:21.135Z,0.90
2022-10-16T13:21:58.366Z,0.80
2022-10-16T13:24:43.999Z,0.50
2022-10-16T13:27:24.699Z,0.47
2022-10-16T13:29:57.038Z,0.63
2022-10-16T13:32:25.072Z,0.40
2022-10-16T13:34:54.492Z,0.70
2022-10-16T13:37:28.659Z,0.53
2022-10-16T13:40:13.863Z,0.50
2022-10-16T13:42:42.250Z,0.50
2022-10-16T13:45:20.422Z,0.70
2022-10-16T13:47:48.338Z,0.53
2022-10-16T13:50:18.033Z,0.60
2022-10-16T13:52:47.338Z,0.83
2022-10-16T13:55:16.180Z,0.70
2022-10-16T13:57:44.638Z,0.70
2022-10-16T14:00:24.767Z,0.80
2022-10-16T14:02:57.547Z,0.50
2022-10-16T14:05:25.399Z,0.70
2022-10-16T14:07:56.290Z,0.60
2022-10-16T14:10:27.652Z,0.80
2022-10-16T14:13:00.313Z,0.60
2022-10-16T14:15:28.461Z,0.60
2022-10-16T14:17:56.780Z,0.80
2022-10-16T14:20:28.260Z,0.60
2022-10-16T14:23:05.471Z,0.70
2022-10-16T14:25:34.318Z,0.70
2022-10-16T14:28:05.089Z,0.77
2022-10-16T14:30:35.042Z,0.70
2022-10-16T14:33:04.712Z,0.70
2022-10-16T14:35:34.122Z,0.43
2022-10-16T14:38:05.160Z,0.70
2022-10-16T14:40:35.033Z,0.60
2022-10-16T14:43:04.041Z,0.70
2022-10-16T14:45:34.729Z,0.60
2022-10-16T14:48:07.344Z,0.60
2022-10-16T14:50:35.037Z,0.70
2022-10-16T14:53:04.202Z,0.77
2022-10-16T14:55:31.914Z,0.63
2022-10-16T14:58:00.890Z,0.60
2022-10-16T15:00:29.005Z,0.53
2022-10-16T15:02:56.750Z,0.80
2022-10-16T15:05:27.164Z,0.60
2022-10-16T15:07:56.082Z,1.10
2022-10-16T15:10:27.688Z,1.90
2022-10-16T15:12:55.525Z,1.30
2022-10-16T15:15:28.918Z,1.77
2022-10-16T15:17:57.993Z,0.77
2022-10-16T15:20:26.356Z,1.10
2022-10-16T15:22:54.466Z,0.90
2022-10-16T15:25:33.082Z,0.97
2022-10-16T15:28:01.425Z,0.73
2022-10-16T15:30:29.360Z,0.50
2022-10-16T15:32:57.879Z,0.57
2022-10-16T15:35:25.684Z,0.70
2022-10-16T15:37:53.479Z,0.80
2022-10-16T15:40:22.326Z,0.70
2022-10-16T15:42:51.560Z,0.80
2022-10-16T15:45:20.654Z,0.70
2022-10-16T15:47:48.649Z,0.90
2022-10-16T15:50:17.280Z,0.60
2022-10-16T15:52:45.081Z,0.83
2022-10-16T15:55:15.806Z,0.80
2022-10-16T15:57:44.096Z,0.80
2022-10-16T16:00:15.847Z,0.87
2022-10-16T16:02:44.450Z,0.70
2022-10-16T16:05:13.242Z,0.80
2022-10-16T16:07:41.586Z,0.83
2022-10-16T16:10:11.899Z,0.83
2022-10-16T16:12:40.737Z,0.93
2022-10-16T16:15:10.807Z,1.00
2022-10-16T16:17:39.895Z,1.37
2022-10-16T16:20:08.816Z,0.70
2022-10-16T16:22:36.556Z,0.90
2022-10-16T16:25:04.583Z,0.83
2022-10-16T16:27:34.467Z,1.27
2022-10-16T16:30:02.445Z,1.00
2022-10-16T16:32:30.128Z,1.40
2022-10-16T16:34:59.165Z,1.40
2022-10-16T16:37:27.169Z,1.70
2022-10-16T16:39:56.033Z,1.47
2022-10-16T16:42:25.034Z,1.20
2022-10-16T16:44:52.800Z,1.53
2022-10-16T16:47:21.214Z,1.20
2022-10-16T16:49:48.921Z,1.03
2022-10-16T16:52:18.006Z,0.90
2022-10-16T16:54:52.294Z,1.00
2022-10-16T16:57:20.581Z,1.00
2022-10-16T16:59:48.350Z,0.93
2022-10-16T17:02:16.129Z,1.20
2022-10-16T17:04:43.866Z,1.10
2022-10-16T17:07:11.599Z,1.10
2022-10-16T17:09:40.683Z,1.20
2022-10-16T17:12:08.416Z,1.07
2022-10-16T17:14:36.114Z,1.17
2022-10-16T17:17:03.830Z,1.70
2022-10-16T17:19:31.733Z,1.37
2022-10-16T17:21:59.475Z,1.00
2022-10-16T17:24:27.266Z,0.87
2022-10-16T17:26:56.349Z,0.87
2022-10-16T17:29:24.051Z,1.50
2022-10-16T17:31:51.740Z,1.00
2022-10-16T17:34:19.782Z,1.27
2022-10-16T17:36:47.795Z,1.20
2022-10-16T17:39:18.915Z,1.20
2022-10-16T17:41:47.423Z,1.37
2022-10-16T17:44:20.744Z,3.23
2022-10-16T17:46:49.069Z,3.43
2022-10-16T17:49:17.233Z,3.03
2022-10-16T17:51:45.413Z,3.70
2022-10-16T17:54:15.164Z,2.40
2022-10-16T17:56:43.055Z,2.20
2022-10-16T17:59:12.490Z,2.23
2022-10-16T18:01:44.310Z,2.00
2022-10-16T18:04:14.060Z,2.47
2022-10-16T18:06:43.873Z,2.50
2022-10-16T18:09:14.970Z,2.50
2022-10-16T18:11:42.871Z,2.33
2022-10-16T18:14:14.444Z,1.50
2022-10-16T18:16:44.695Z,1.40
2022-10-16T18:19:12.949Z,1.30
2022-10-16T18:21:41.246Z,1.47
2022-10-16T18:24:10.049Z,1.53
2022-10-16T18:26:37.927Z,1.73
2022-10-16T18:29:05.834Z,1.40
2022-10-16T18:31:35.054Z,1.23
2022-10-16T18:34:05.403Z,1.00
2022-10-16T18:36:34.994Z,1.10
2022-10-16T18:39:09.197Z,1.90
2022-10-16T18:41:38.388Z,2.87
2022-10-16T18:44:08.031Z,2.40
2022-10-16T18:46:35.838Z,2.43
2022-10-16T18:49:05.107Z,3.00
2022-10-16T18:51:35.012Z,3.90
2022-10-16T18:54:04.998Z,4.17
2022-10-16T18:56:33.149Z,4.43
2022-10-16T18:59:02.719Z,3.53
2022-10-16T19:01:33.771Z,3.27
2022-10-16T19:04:03.575Z,3.03
2022-10-16T19:06:35.893Z,2.80
2022-10-16T19:09:04.407Z,2.83
2022-10-16T19:11:33.460Z,2.80
2022-10-16T19:14:02.962Z,2.50
2022-10-16T19:16:32.708Z,2.57
2022-10-16T19:19:02.800Z,2.40
2022-10-16T19:21:35.178Z,2.53
2022-10-16T19:24:04.617Z,2.30
2022-10-16T19:26:35.765Z,2.40
2022-10-16T19:29:07.005Z,2.77
2022-10-16T19:31:35.390Z,2.53
2022-10-16T19:34:06.564Z,2.10
2022-10-16T19:36:38.143Z,2.40
2022-10-16T19:39:08.739Z,2.60
2022-10-16T19:41:38.359Z,2.03
2022-10-16T19:44:08.005Z,2.60
2022-10-16T19:46:36.620Z,2.60
2022-10-16T19:49:06.044Z,3.43
2022-10-16T19:51:35.715Z,2.90
2022-10-16T19:54:06.116Z,3.00
2022-10-16T19:56:35.469Z,3.23
2022-10-16T19:59:04.438Z,2.60
2022-10-16T20:01:33.150Z,2.77
2022-10-16T20:04:01.109Z,2.70
2022-10-16T20:06:29.695Z,2.50
2022-10-16T20:08:59.107Z,2.43
2022-10-16T20:11:29.053Z,2.20
2022-10-16T20:13:56.831Z,2.57
2022-10-16T20:16:24.847Z,2.13
2022-10-16T20:18:53.758Z,1.97
2022-10-16T20:21:24.307Z,1.90
2022-10-16T20:23:52.357Z,2.10
2022-10-16T20:26:24.026Z,2.97
2022-10-16T20:28:51.932Z,3.23
2022-10-16T20:31:22.587Z,3.40
2022-10-16T20:33:50.916Z,2.50
2022-10-16T20:36:20.091Z,6.20
2022-10-16T20:38:48.313Z,3.90
2022-10-16T20:41:17.846Z,3.77
2022-10-16T20:43:48.508Z,2.40
2022-10-16T20:46:19.549Z,1.80
2022-10-16T20:48:47.872Z,2.10
2022-10-16T20:51:17.652Z,2.13
2022-10-16T20:53:46.477Z,2.07
2022-10-16T20:56:15.806Z,1.70
2022-10-16T20:58:43.558Z,2.10
2022-10-16T21:01:15.124Z,2.07
2022-10-16T21:03:44.729Z,2.20
2022-10-16T21:06:12.719Z,1.60
2022-10-16T21:08:42.639Z,2.30
2022-10-16T21:11:11.880Z,2.13
2022-10-16T21:13:40.001Z,2.33
2022-10-16T21:16:08.418Z,2.10
2022-10-16T21:18:40.751Z,2.40
2022-10-16T21:21:12.064Z,2.07
2022-10-16T21:23:39.745Z,2.33
2022-10-16T21:26:08.344Z,2.13
2022-10-16T21:28:36.222Z,1.90
2022-10-16T21:31:12.532Z,2.80
2022-10-16T21:33:42.382Z,2.37
2022-10-16T21:36:14.680Z,2.50
2022-10-16T21:38:42.657Z,2.50
2022-10-16T21:41:15.307Z,2.03
2022-10-16T21:43:43.068Z,2.10
2022-10-16T21:46:10.926Z,2.27
2022-10-16T21:48:39.293Z,2.10
2022-10-16T21:51:08.527Z,2.30
2022-10-16T21:53:36.278Z,2.07
2022-10-16T21:56:04.842Z,2.10
2022-10-16T21:58:33.581Z,2.40
2022-10-16T22:01:08.067Z,2.17
2022-10-16T22:03:35.982Z,2.30
2022-10-16T22:06:06.565Z,1.93
2022-10-16T22:08:36.469Z,2.03
2022-10-16T22:11:05.663Z,1.87
2022-10-16T22:13:33.836Z,1.80
2022-10-16T22:16:01.762Z,2.33
2022-10-16T22:18:30.053Z,1.87
2022-10-16T22:20:57.945Z,1.70
2022-10-16T22:23:26.144Z,1.70
2022-10-16T22:26:00.345Z,1.97
2022-10-16T22:28:28.156Z,1.90
2022-10-16T22:30:55.931Z,2.33
2022-10-16T22:33:23.681Z,2.13
2022-10-16T22:35:51.399Z,2.23
2022-10-16T22:38:19.145Z,2.40
2022-10-16T22:40:47.098Z,2.63
2022-10-16T22:43:16.198Z,2.47
2022-10-16T22:45:43.997Z,2.43
2022-10-16T22:48:11.729Z,2.30
2022-10-16T22:50:39.509Z,2.40
2022-10-16T22:53:07.222Z,2.50
2022-10-16T22:55:35.187Z,2.30
2022-10-16T22:58:02.877Z,2.27
2022-10-16T23:00:32.750Z,2.50
2022-10-16T23:03:00.498Z,2.00
2022-10-16T23:05:28.314Z,2.03
2022-10-16T23:07:56.047Z,1.93
2022-10-16T23:10:27.570Z,2.07
2022-10-16T23:12:55.230Z,2.10
2022-10-16T23:15:23.110Z,3.13
2022-10-16T23:17:52.281Z,2.40
2022-10-16T23:20:19.981Z,2.50
2022-10-16T23:22:47.655Z,3.07
2022-10-16T23:25:15.358Z,3.50
2022-10-16T23:27:43.117Z,3.13
2022-10-16T23:30:11.661Z,3.37
2022-10-16T23:32:39.401Z,3.53
2022-10-16T23:35:09.293Z,3.73
2022-10-16T23:37:37.046Z,3.30
2022-10-16T23:40:05.380Z,3.50
2022-10-16T23:42:33.169Z,3.70
2022-10-16T23:45:00.875Z,3.43
2022-10-16T23:47:28.929Z,3.77
2022-10-16T23:49:57.022Z,3.37
2022-10-16T23:52:26.155Z,3.57
2022-10-16T23:54:53.892Z,3.37
2022-10-16T23:57:21.582Z,3.50
2022-10-16T23:59:49.730Z,2.70
